sensor_id;sensor_type;location;lat;lon;timestamp;P1;durP1;ratioP1;P2;durP2;ratioP2
75628;SDS011;64213;46.452;16.994;2022-11-25T00:00:42;36.70;;;19.23;;
75628;SDS011;64213;46.452;16.994;2022-11-25T00:03:45;41.90;;;19.37;;
75628;SDS011;64213;46.452;16.994;2022-11-25T00:06:48;40.30;;;19.90;;
75628;SDS011;64213;46.452;16.994;2022-11-25T00:09:50;47.42;;;21.65;;
75628;SDS011;64213;46.452;16.994;2022-11-25T00:12:52;41.78;;;21.00;;
75628;SDS011;64213;46.452;16.994;2022-11-25T00:15:54;42.97;;;20.88;;
75628;SDS011;64213;46.452;16.994;2022-11-25T00:18:57;40.27;;;20.77;;
75628;SDS011;64213;46.452;16.994;2022-11-25T00:21:59;43.10;;;21.15;;
75628;SDS011;64213;46.452;16.994;2022-11-25T00:25:02;38.33;;;20.17;;
75628;SDS011;64213;46.452;16.994;2022-11-25T00:28:05;46.92;;;21.37;;
75628;SDS011;64213;46.452;16.994;2022-11-25T00:31:08;40.50;;;20.33;;
75628;SDS011;64213;46.452;16.994;2022-11-25T00:34:13;39.03;;;20.50;;
75628;SDS011;64213;46.452;16.994;2022-11-25T00:37:16;40.35;;;20.00;;
75628;SDS011;64213;46.452;16.994;2022-11-25T00:40:18;40.47;;;20.73;;
75628;SDS011;64213;46.452;16.994;2022-11-25T00:43:20;39.10;;;19.00;;
75628;SDS011;64213;46.452;16.994;2022-11-25T00:46:41;40.72;;;20.15;;
75628;SDS011;64213;46.452;16.994;2022-11-25T00:49:44;42.47;;;19.53;;
75628;SDS011;64213;46.452;16.994;2022-11-25T00:52:56;42.75;;;19.98;;
75628;SDS011;64213;46.452;16.994;2022-11-25T00:56:01;42.15;;;19.85;;
75628;SDS011;64213;46.452;16.994;2022-11-25T00:59:16;45.60;;;20.83;;
75628;SDS011;64213;46.452;16.994;2022-11-25T01:02:18;46.40;;;21.27;;
75628;SDS011;64213;46.452;16.994;2022-11-25T01:05:21;39.53;;;19.10;;
75628;SDS011;64213;46.452;16.994;2022-11-25T01:08:23;35.60;;;16.83;;
75628;SDS011;64213;46.452;16.994;2022-11-25T01:11:25;56.17;;;21.37;;
75628;SDS011;64213;46.452;16.994;2022-11-25T01:14:27;60.92;;;18.12;;
75628;SDS011;64213;46.452;16.994;2022-11-25T01:17:30;51.40;;;14.77;;
75628;SDS011;64213;46.452;16.994;2022-11-25T01:20:34;82.10;;;18.53;;
75628;SDS011;64213;46.452;16.994;2022-11-25T01:23:37;125.00;;;20.65;;
75628;SDS011;64213;46.452;16.994;2022-11-25T01:26:40;123.35;;;24.08;;
75628;SDS011;64213;46.452;16.994;2022-11-25T01:29:43;96.68;;;21.60;;
75628;SDS011;64213;46.452;16.994;2022-11-25T01:32:45;77.47;;;21.95;;
75628;SDS011;64213;46.452;16.994;2022-11-25T01:35:47;64.10;;;20.43;;
75628;SDS011;64213;46.452;16.994;2022-11-25T01:38:51;66.95;;;20.85;;
75628;SDS011;64213;46.452;16.994;2022-11-25T01:41:55;58.78;;;21.58;;
75628;SDS011;64213;46.452;16.994;2022-11-25T01:48:21;47.42;;;21.35;;
75628;SDS011;64213;46.452;16.994;2022-11-25T01:51:38;41.63;;;20.90;;
75628;SDS011;64213;46.452;16.994;2022-11-25T01:55:03;42.13;;;20.90;;
75628;SDS011;64213;46.452;16.994;2022-11-25T01:58:13;38.08;;;18.50;;
75628;SDS011;64213;46.452;16.994;2022-11-25T02:01:19;41.37;;;20.42;;
75628;SDS011;64213;46.452;16.994;2022-11-25T02:04:22;44.40;;;20.85;;
75628;SDS011;64213;46.452;16.994;2022-11-25T02:07:30;38.37;;;19.17;;
75628;SDS011;64213;46.452;16.994;2022-11-25T02:10:35;40.50;;;21.08;;
75628;SDS011;64213;46.452;16.994;2022-11-25T02:13:38;44.05;;;21.75;;
75628;SDS011;64213;46.452;16.994;2022-11-25T02:16:41;67.65;;;21.58;;
75628;SDS011;64213;46.452;16.994;2022-11-25T02:22:59;45.03;;;15.03;;
75628;SDS011;64213;46.452;16.994;2022-11-25T02:26:26;71.60;;;20.15;;
75628;SDS011;64213;46.452;16.994;2022-11-25T02:29:28;94.03;;;21.27;;
75628;SDS011;64213;46.452;16.994;2022-11-25T02:32:31;92.12;;;19.65;;
75628;SDS011;64213;46.452;16.994;2022-11-25T02:35:36;75.70;;;23.92;;
75628;SDS011;64213;46.452;16.994;2022-11-25T02:39:02;57.07;;;21.10;;
75628;SDS011;64213;46.452;16.994;2022-11-25T02:42:05;48.85;;;20.05;;
75628;SDS011;64213;46.452;16.994;2022-11-25T02:45:08;152.20;;;56.63;;
75628;SDS011;64213;46.452;16.994;2022-11-25T02:48:15;99.78;;;29.35;;
75628;SDS011;64213;46.452;16.994;2022-11-25T02:51:18;100.95;;;38.58;;
75628;SDS011;64213;46.452;16.994;2022-11-25T02:54:22;76.63;;;31.13;;
75628;SDS011;64213;46.452;16.994;2022-11-25T02:57:24;72.37;;;29.95;;
75628;SDS011;64213;46.452;16.994;2022-11-25T03:00:26;68.93;;;27.75;;
75628;SDS011;64213;46.452;16.994;2022-11-25T03:03:29;56.85;;;23.58;;
75628;SDS011;64213;46.452;16.994;2022-11-25T03:06:31;52.95;;;22.67;;
75628;SDS011;64213;46.452;16.994;2022-11-25T03:09:34;53.07;;;22.10;;
75628;SDS011;64213;46.452;16.994;2022-11-25T03:12:36;69.78;;;21.50;;
75628;SDS011;64213;46.452;16.994;2022-11-25T03:15:38;41.80;;;17.25;;
75628;SDS011;64213;46.452;16.994;2022-11-25T03:18:41;39.33;;;13.85;;
75628;SDS011;64213;46.452;16.994;2022-11-25T03:21:44;55.12;;;20.42;;
75628;SDS011;64213;46.452;16.994;2022-11-25T03:24:46;55.53;;;18.90;;
75628;SDS011;64213;46.452;16.994;2022-11-25T03:27:48;39.20;;;16.12;;
75628;SDS011;64213;46.452;16.994;2022-11-25T03:30:50;65.30;;;20.52;;
75628;SDS011;64213;46.452;16.994;2022-11-25T03:33:54;70.15;;;21.25;;
75628;SDS011;64213;46.452;16.994;2022-11-25T03:36:56;74.00;;;20.10;;
75628;SDS011;64213;46.452;16.994;2022-11-25T03:39:58;70.30;;;19.83;;
75628;SDS011;64213;46.452;16.994;2022-11-25T03:43:01;63.47;;;19.87;;
75628;SDS011;64213;46.452;16.994;2022-11-25T03:46:03;67.10;;;19.65;;
75628;SDS011;64213;46.452;16.994;2022-11-25T03:49:05;49.55;;;18.52;;
75628;SDS011;64213;46.452;16.994;2022-11-25T03:52:08;49.90;;;19.23;;
75628;SDS011;64213;46.452;16.994;2022-11-25T03:55:10;58.97;;;18.40;;
75628;SDS011;64213;46.452;16.994;2022-11-25T03:58:13;62.28;;;18.70;;
75628;SDS011;64213;46.452;16.994;2022-11-25T04:01:16;69.45;;;20.10;;
75628;SDS011;64213;46.452;16.994;2022-11-25T04:04:18;70.28;;;19.50;;
75628;SDS011;64213;46.452;16.994;2022-11-25T04:07:20;70.35;;;19.33;;
75628;SDS011;64213;46.452;16.994;2022-11-25T04:10:23;58.13;;;17.07;;
75628;SDS011;64213;46.452;16.994;2022-11-25T04:13:25;52.28;;;18.60;;
75628;SDS011;64213;46.452;16.994;2022-11-25T04:16:28;49.03;;;17.90;;
75628;SDS011;64213;46.452;16.994;2022-11-25T04:19:30;52.38;;;17.48;;
75628;SDS011;64213;46.452;16.994;2022-11-25T04:22:32;60.72;;;18.65;;
75628;SDS011;64213;46.452;16.994;2022-11-25T04:25:35;55.97;;;18.83;;
75628;SDS011;64213;46.452;16.994;2022-11-25T04:28:38;78.47;;;19.23;;
75628;SDS011;64213;46.452;16.994;2022-11-25T04:31:40;64.50;;;19.05;;
75628;SDS011;64213;46.452;16.994;2022-11-25T04:34:42;79.57;;;19.98;;
75628;SDS011;64213;46.452;16.994;2022-11-25T04:38:03;71.20;;;21.15;;
75628;SDS011;64213;46.452;16.994;2022-11-25T04:41:06;69.30;;;19.70;;
75628;SDS011;64213;46.452;16.994;2022-11-25T04:44:08;71.00;;;19.52;;
75628;SDS011;64213;46.452;16.994;2022-11-25T04:47:11;74.40;;;22.42;;
75628;SDS011;64213;46.452;16.994;2022-11-25T04:50:14;58.58;;;20.95;;
75628;SDS011;64213;46.452;16.994;2022-11-25T04:53:19;60.38;;;20.45;;
75628;SDS011;64213;46.452;16.994;2022-11-25T04:56:21;66.23;;;21.00;;
75628;SDS011;64213;46.452;16.994;2022-11-25T04:59:24;68.87;;;21.58;;
75628;SDS011;64213;46.452;16.994;2022-11-25T05:02:41;67.50;;;17.85;;
75628;SDS011;64213;46.452;16.994;2022-11-25T05:05:43;65.22;;;20.33;;
75628;SDS011;64213;46.452;16.994;2022-11-25T05:08:49;77.95;;;20.67;;
75628;SDS011;64213;46.452;16.994;2022-11-25T05:11:51;74.50;;;22.90;;
75628;SDS011;64213;46.452;16.994;2022-11-25T05:14:53;88.90;;;25.25;;
75628;SDS011;64213;46.452;16.994;2022-11-25T05:17:56;81.20;;;20.98;;
75628;SDS011;64213;46.452;16.994;2022-11-25T05:21:02;71.75;;;20.37;;
75628;SDS011;64213;46.452;16.994;2022-11-25T05:24:05;75.10;;;21.92;;
75628;SDS011;64213;46.452;16.994;2022-11-25T05:27:08;65.13;;;19.60;;
75628;SDS011;64213;46.452;16.994;2022-11-25T05:30:10;74.28;;;21.90;;
75628;SDS011;64213;46.452;16.994;2022-11-25T05:33:13;59.80;;;20.60;;
75628;SDS011;64213;46.452;16.994;2022-11-25T05:36:16;55.50;;;19.12;;
75628;SDS011;64213;46.452;16.994;2022-11-25T05:39:18;61.92;;;19.77;;
75628;SDS011;64213;46.452;16.994;2022-11-25T05:42:21;43.67;;;17.27;;
75628;SDS011;64213;46.452;16.994;2022-11-25T05:45:23;75.95;;;21.60;;
75628;SDS011;64213;46.452;16.994;2022-11-25T05:48:25;57.03;;;19.73;;
75628;SDS011;64213;46.452;16.994;2022-11-25T05:51:27;82.18;;;20.95;;
75628;SDS011;64213;46.452;16.994;2022-11-25T05:54:30;67.20;;;19.80;;
75628;SDS011;64213;46.452;16.994;2022-11-25T05:57:32;69.07;;;22.40;;
75628;SDS011;64213;46.452;16.994;2022-11-25T06:00:36;68.57;;;21.30;;
75628;SDS011;64213;46.452;16.994;2022-11-25T06:03:39;54.53;;;21.20;;
75628;SDS011;64213;46.452;16.994;2022-11-25T06:06:42;42.45;;;17.15;;
75628;SDS011;64213;46.452;16.994;2022-11-25T06:09:44;73.57;;;23.02;;
75628;SDS011;64213;46.452;16.994;2022-11-25T06:12:46;66.63;;;21.37;;
75628;SDS011;64213;46.452;16.994;2022-11-25T06:15:49;83.35;;;22.20;;
75628;SDS011;64213;46.452;16.994;2022-11-25T06:18:51;75.62;;;18.92;;
75628;SDS011;64213;46.452;16.994;2022-11-25T06:21:54;84.57;;;22.37;;
75628;SDS011;64213;46.452;16.994;2022-11-25T06:24:56;91.97;;;22.40;;
75628;SDS011;64213;46.452;16.994;2022-11-25T06:28:04;85.50;;;22.60;;
75628;SDS011;64213;46.452;16.994;2022-11-25T06:31:15;71.50;;;22.25;;
75628;SDS011;64213;46.452;16.994;2022-11-25T06:34:19;94.47;;;24.75;;
75628;SDS011;64213;46.452;16.994;2022-11-25T06:37:21;78.78;;;21.55;;
75628;SDS011;64213;46.452;16.994;2022-11-25T06:40:23;88.47;;;22.58;;
75628;SDS011;64213;46.452;16.994;2022-11-25T06:43:26;77.77;;;22.30;;
75628;SDS011;64213;46.452;16.994;2022-11-25T06:46:28;70.62;;;16.75;;
75628;SDS011;64213;46.452;16.994;2022-11-25T06:49:32;79.07;;;21.35;;
75628;SDS011;64213;46.452;16.994;2022-11-25T06:52:34;68.32;;;22.77;;
75628;SDS011;64213;46.452;16.994;2022-11-25T06:55:36;53.83;;;19.25;;
75628;SDS011;64213;46.452;16.994;2022-11-25T06:58:38;129.30;;;21.77;;
75628;SDS011;64213;46.452;16.994;2022-11-25T07:01:42;86.53;;;21.40;;
75628;SDS011;64213;46.452;16.994;2022-11-25T07:04:44;83.18;;;19.87;;
75628;SDS011;64213;46.452;16.994;2022-11-25T07:07:46;99.82;;;19.25;;
75628;SDS011;64213;46.452;16.994;2022-11-25T07:10:49;71.40;;;21.50;;
75628;SDS011;64213;46.452;16.994;2022-11-25T07:13:55;56.70;;;20.67;;
75628;SDS011;64213;46.452;16.994;2022-11-25T07:16:59;58.00;;;19.90;;
75628;SDS011;64213;46.452;16.994;2022-11-25T07:20:01;67.82;;;25.75;;
75628;SDS011;64213;46.452;16.994;2022-11-25T07:23:04;63.35;;;25.15;;
75628;SDS011;64213;46.452;16.994;2022-11-25T07:26:07;56.53;;;23.65;;
75628;SDS011;64213;46.452;16.994;2022-11-25T07:29:12;49.70;;;22.63;;
75628;SDS011;64213;46.452;16.994;2022-11-25T07:32:35;50.90;;;23.33;;
75628;SDS011;64213;46.452;16.994;2022-11-25T07:35:37;50.28;;;22.98;;
75628;SDS011;64213;46.452;16.994;2022-11-25T07:38:40;42.60;;;17.90;;
75628;SDS011;64213;46.452;16.994;2022-11-25T07:41:51;50.80;;;20.33;;
75628;SDS011;64213;46.452;16.994;2022-11-25T07:44:54;41.90;;;19.50;;
75628;SDS011;64213;46.452;16.994;2022-11-25T07:47:56;45.25;;;19.77;;
75628;SDS011;64213;46.452;16.994;2022-11-25T07:50:58;45.20;;;20.10;;
75628;SDS011;64213;46.452;16.994;2022-11-25T07:54:01;41.55;;;20.08;;
75628;SDS011;64213;46.452;16.994;2022-11-25T07:57:05;40.00;;;21.05;;
75628;SDS011;64213;46.452;16.994;2022-11-25T08:00:07;42.50;;;19.73;;
75628;SDS011;64213;46.452;16.994;2022-11-25T08:03:10;42.15;;;16.95;;
75628;SDS011;64213;46.452;16.994;2022-11-25T08:06:16;47.92;;;19.05;;
75628;SDS011;64213;46.452;16.994;2022-11-25T08:09:21;38.17;;;18.05;;
75628;SDS011;64213;46.452;16.994;2022-11-25T08:12:24;35.95;;;18.50;;
75628;SDS011;64213;46.452;16.994;2022-11-25T08:15:27;38.60;;;19.23;;
75628;SDS011;64213;46.452;16.994;2022-11-25T08:18:29;50.05;;;18.92;;
75628;SDS011;64213;46.452;16.994;2022-11-25T08:21:32;31.65;;;16.15;;
75628;SDS011;64213;46.452;16.994;2022-11-25T08:24:35;34.35;;;16.83;;
75628;SDS011;64213;46.452;16.994;2022-11-25T08:27:37;41.25;;;18.48;;
75628;SDS011;64213;46.452;16.994;2022-11-25T08:30:39;45.73;;;22.17;;
75628;SDS011;64213;46.452;16.994;2022-11-25T08:33:42;37.72;;;20.37;;
75628;SDS011;64213;46.452;16.994;2022-11-25T08:36:45;38.55;;;20.77;;
75628;SDS011;64213;46.452;16.994;2022-11-25T08:39:50;42.10;;;21.73;;
75628;SDS011;64213;46.452;16.994;2022-11-25T08:42:53;32.97;;;17.50;;
75628;SDS011;64213;46.452;16.994;2022-11-25T08:45:56;40.90;;;21.70;;
75628;SDS011;64213;46.452;16.994;2022-11-25T08:48:59;40.05;;;21.85;;
75628;SDS011;64213;46.452;16.994;2022-11-25T08:52:01;37.58;;;20.15;;
75628;SDS011;64213;46.452;16.994;2022-11-25T08:55:03;37.53;;;18.52;;
75628;SDS011;64213;46.452;16.994;2022-11-25T08:58:06;32.83;;;19.00;;
75628;SDS011;64213;46.452;16.994;2022-11-25T09:01:12;32.27;;;17.47;;
75628;SDS011;64213;46.452;16.994;2022-11-25T09:04:14;29.67;;;17.73;;
75628;SDS011;64213;46.452;16.994;2022-11-25T09:07:17;30.90;;;17.05;;
75628;SDS011;64213;46.452;16.994;2022-11-25T09:10:20;28.85;;;16.27;;
75628;SDS011;64213;46.452;16.994;2022-11-25T09:13:22;26.35;;;14.80;;
75628;SDS011;64213;46.452;16.994;2022-11-25T09:16:26;27.13;;;15.07;;
75628;SDS011;64213;46.452;16.994;2022-11-25T09:19:29;27.85;;;15.63;;
75628;SDS011;64213;46.452;16.994;2022-11-25T09:22:31;29.23;;;16.05;;
75628;SDS011;64213;46.452;16.994;2022-11-25T09:25:33;29.80;;;15.32;;
75628;SDS011;64213;46.452;16.994;2022-11-25T09:28:36;26.50;;;14.38;;
75628;SDS011;64213;46.452;16.994;2022-11-25T09:31:39;29.03;;;15.33;;
75628;SDS011;64213;46.452;16.994;2022-11-25T09:34:41;28.83;;;15.15;;
75628;SDS011;64213;46.452;16.994;2022-11-25T09:37:44;31.70;;;16.45;;
75628;SDS011;64213;46.452;16.994;2022-11-25T09:44:01;30.48;;;16.35;;
75628;SDS011;64213;46.452;16.994;2022-11-25T09:47:41;29.60;;;15.03;;
75628;SDS011;64213;46.452;16.994;2022-11-25T09:54:31;29.80;;;14.60;;
75628;SDS011;64213;46.452;16.994;2022-11-25T10:00:49;23.33;;;13.45;;
75628;SDS011;64213;46.452;16.994;2022-11-25T10:07:00;21.95;;;12.32;;
75628;SDS011;64213;46.452;16.994;2022-11-25T10:10:06;23.00;;;12.30;;
75628;SDS011;64213;46.452;16.994;2022-11-25T10:13:17;47.78;;;24.02;;
75628;SDS011;64213;46.452;16.994;2022-11-25T10:23:01;19.37;;;10.82;;
75628;SDS011;64213;46.452;16.994;2022-11-25T10:26:14;20.02;;;10.82;;
75628;SDS011;64213;46.452;16.994;2022-11-25T10:29:25;19.23;;;10.73;;
75628;SDS011;64213;46.452;16.994;2022-11-25T10:32:36;21.23;;;13.75;;
75628;SDS011;64213;46.452;16.994;2022-11-25T10:35:45;21.80;;;12.50;;
75628;SDS011;64213;46.452;16.994;2022-11-25T10:42:05;22.10;;;13.93;;
75628;SDS011;64213;46.452;16.994;2022-11-25T10:45:14;20.27;;;12.27;;
75628;SDS011;64213;46.452;16.994;2022-11-25T10:48:59;20.17;;;11.80;;
75628;SDS011;64213;46.452;16.994;2022-11-25T10:51:46;18.40;;;11.03;;
75628;SDS011;64213;46.452;16.994;2022-11-25T10:55:10;24.70;;;15.05;;
75628;SDS011;64213;46.452;16.994;2022-11-25T10:58:25;18.17;;;9.93;;
75628;SDS011;64213;46.452;16.994;2022-11-25T11:01:33;16.02;;;9.27;;
75628;SDS011;64213;46.452;16.994;2022-11-25T11:04:35;15.50;;;8.52;;
75628;SDS011;64213;46.452;16.994;2022-11-25T11:08:16;19.43;;;9.97;;
75628;SDS011;64213;46.452;16.994;2022-11-25T11:11:20;17.80;;;9.80;;
75628;SDS011;64213;46.452;16.994;2022-11-25T11:14:24;16.77;;;9.30;;
75628;SDS011;64213;46.452;16.994;2022-11-25T11:20:38;18.65;;;8.40;;
75628;SDS011;64213;46.452;16.994;2022-11-25T11:23:50;18.57;;;8.73;;
75628;SDS011;64213;46.452;16.994;2022-11-25T11:30:21;15.68;;;8.73;;
75628;SDS011;64213;46.452;16.994;2022-11-25T11:33:36;17.95;;;9.18;;
75628;SDS011;64213;46.452;16.994;2022-11-25T11:37:42;16.87;;;8.93;;
75628;SDS011;64213;46.452;16.994;2022-11-25T11:40:46;15.27;;;7.93;;
75628;SDS011;64213;46.452;16.994;2022-11-25T11:43:56;16.35;;;8.55;;
75628;SDS011;64213;46.452;16.994;2022-11-25T11:51:12;16.90;;;7.87;;
75628;SDS011;64213;46.452;16.994;2022-11-25T11:54:32;16.52;;;8.05;;
75628;SDS011;64213;46.452;16.994;2022-11-25T11:57:43;16.87;;;7.57;;
75628;SDS011;64213;46.452;16.994;2022-11-25T12:05:10;12.80;;;5.90;;
75628;SDS011;64213;46.452;16.994;2022-11-25T12:11:54;16.90;;;6.75;;
75628;SDS011;64213;46.452;16.994;2022-11-25T12:15:05;16.70;;;6.13;;
75628;SDS011;64213;46.452;16.994;2022-11-25T12:18:19;13.35;;;5.50;;
75628;SDS011;64213;46.452;16.994;2022-11-25T12:25:19;15.27;;;5.12;;
75628;SDS011;64213;46.452;16.994;2022-11-25T12:28:25;15.23;;;6.28;;
75628;SDS011;64213;46.452;16.994;2022-11-25T12:31:38;12.40;;;5.27;;
75628;SDS011;64213;46.452;16.994;2022-11-25T12:34:51;12.02;;;5.30;;
75628;SDS011;64213;46.452;16.994;2022-11-25T12:38:21;11.57;;;5.70;;
75628;SDS011;64213;46.452;16.994;2022-11-25T12:41:40;11.20;;;4.82;;
75628;SDS011;64213;46.452;16.994;2022-11-25T12:47:50;12.53;;;5.20;;
75628;SDS011;64213;46.452;16.994;2022-11-25T13:01:43;12.50;;;5.22;;
75628;SDS011;64213;46.452;16.994;2022-11-25T13:15:53;13.65;;;5.72;;
75628;SDS011;64213;46.452;16.994;2022-11-25T13:19:00;13.43;;;5.45;;
75628;SDS011;64213;46.452;16.994;2022-11-25T13:25:28;11.85;;;5.18;;
75628;SDS011;64213;46.452;16.994;2022-11-25T13:28:33;11.80;;;5.30;;
75628;SDS011;64213;46.452;16.994;2022-11-25T13:31:58;13.88;;;6.20;;
75628;SDS011;64213;46.452;16.994;2022-11-25T13:41:32;14.75;;;6.60;;
75628;SDS011;64213;46.452;16.994;2022-11-25T13:44:55;15.38;;;6.32;;
75628;SDS011;64213;46.452;16.994;2022-11-25T13:48:06;13.73;;;6.87;;
75628;SDS011;64213;46.452;16.994;2022-11-25T13:51:21;14.70;;;6.47;;
75628;SDS011;64213;46.452;16.994;2022-11-25T13:54:31;13.70;;;6.50;;
75628;SDS011;64213;46.452;16.994;2022-11-25T13:57:41;21.02;;;10.27;;
75628;SDS011;64213;46.452;16.994;2022-11-25T14:03:58;15.50;;;7.22;;
75628;SDS011;64213;46.452;16.994;2022-11-25T14:07:20;13.20;;;5.97;;
75628;SDS011;64213;46.452;16.994;2022-11-25T14:27:15;15.50;;;5.67;;
75628;SDS011;64213;46.452;16.994;2022-11-25T14:30:20;13.82;;;5.43;;
75628;SDS011;64213;46.452;16.994;2022-11-25T14:33:23;13.50;;;5.12;;
75628;SDS011;64213;46.452;16.994;2022-11-25T14:36:32;19.25;;;6.55;;
75628;SDS011;64213;46.452;16.994;2022-11-25T14:40:02;14.23;;;5.57;;
75628;SDS011;64213;46.452;16.994;2022-11-25T14:43:14;15.93;;;6.00;;
75628;SDS011;64213;46.452;16.994;2022-11-25T14:46:27;15.90;;;6.57;;
75628;SDS011;64213;46.452;16.994;2022-11-25T14:49:48;18.23;;;8.05;;
75628;SDS011;64213;46.452;16.994;2022-11-25T14:53:13;19.65;;;8.88;;
75628;SDS011;64213;46.452;16.994;2022-11-25T14:56:20;22.45;;;11.07;;
75628;SDS011;64213;46.452;16.994;2022-11-25T14:59:26;19.57;;;10.57;;
75628;SDS011;64213;46.452;16.994;2022-11-25T15:02:30;22.83;;;12.18;;
75628;SDS011;64213;46.452;16.994;2022-11-25T15:05:37;17.77;;;8.90;;
75628;SDS011;64213;46.452;16.994;2022-11-25T15:08:43;12.35;;;4.22;;
75628;SDS011;64213;46.452;16.994;2022-11-25T15:11:47;11.50;;;4.35;;
75628;SDS011;64213;46.452;16.994;2022-11-25T15:15:02;11.83;;;4.30;;
75628;SDS011;64213;46.452;16.994;2022-11-25T15:18:05;16.33;;;6.25;;
75628;SDS011;64213;46.452;16.994;2022-11-25T15:21:11;14.55;;;6.45;;
75628;SDS011;64213;46.452;16.994;2022-11-25T15:24:21;12.57;;;5.07;;
75628;SDS011;64213;46.452;16.994;2022-11-25T15:27:29;15.30;;;5.65;;
75628;SDS011;64213;46.452;16.994;2022-11-25T15:30:33;10.50;;;4.17;;
75628;SDS011;64213;46.452;16.994;2022-11-25T15:33:38;10.05;;;3.67;;
75628;SDS011;64213;46.452;16.994;2022-11-25T15:36:42;9.50;;;4.18;;
75628;SDS011;64213;46.452;16.994;2022-11-25T15:39:44;11.30;;;3.92;;
75628;SDS011;64213;46.452;16.994;2022-11-25T15:42:47;10.50;;;3.58;;
75628;SDS011;64213;46.452;16.994;2022-11-25T15:45:50;10.07;;;3.90;;
75628;SDS011;64213;46.452;16.994;2022-11-25T15:48:59;10.25;;;3.70;;
75628;SDS011;64213;46.452;16.994;2022-11-25T15:52:07;12.93;;;4.57;;
75628;SDS011;64213;46.452;16.994;2022-11-25T15:58:31;13.75;;;5.65;;
75628;SDS011;64213;46.452;16.994;2022-11-25T16:01:34;24.73;;;9.43;;
75628;SDS011;64213;46.452;16.994;2022-11-25T16:04:36;26.48;;;12.02;;
75628;SDS011;64213;46.452;16.994;2022-11-25T16:10:55;14.52;;;5.57;;
75628;SDS011;64213;46.452;16.994;2022-11-25T16:14:16;14.63;;;5.93;;
75628;SDS011;64213;46.452;16.994;2022-11-25T16:17:24;8.43;;;3.10;;
75628;SDS011;64213;46.452;16.994;2022-11-25T16:20:26;11.77;;;3.95;;
75628;SDS011;64213;46.452;16.994;2022-11-25T16:23:28;12.15;;;4.68;;
75628;SDS011;64213;46.452;16.994;2022-11-25T16:30:18;13.70;;;4.43;;
75628;SDS011;64213;46.452;16.994;2022-11-25T16:33:22;17.07;;;6.00;;
75628;SDS011;64213;46.452;16.994;2022-11-25T16:36:25;43.28;;;16.90;;
75628;SDS011;64213;46.452;16.994;2022-11-25T16:39:27;19.62;;;8.30;;
75628;SDS011;64213;46.452;16.994;2022-11-25T16:42:30;36.65;;;16.65;;
75628;SDS011;64213;46.452;16.994;2022-11-25T16:45:33;50.38;;;20.45;;
75628;SDS011;64213;46.452;16.994;2022-11-25T16:48:36;52.63;;;24.70;;
75628;SDS011;64213;46.452;16.994;2022-11-25T16:51:38;92.53;;;41.08;;
75628;SDS011;64213;46.452;16.994;2022-11-25T16:54:41;90.38;;;41.97;;
75628;SDS011;64213;46.452;16.994;2022-11-25T16:57:43;94.28;;;44.22;;
75628;SDS011;64213;46.452;16.994;2022-11-25T17:00:55;105.25;;;49.28;;
75628;SDS011;64213;46.452;16.994;2022-11-25T17:03:58;65.27;;;30.90;;
75628;SDS011;64213;46.452;16.994;2022-11-25T17:07:00;63.30;;;29.23;;
75628;SDS011;64213;46.452;16.994;2022-11-25T17:10:25;57.80;;;28.45;;
75628;SDS011;64213;46.452;16.994;2022-11-25T17:13:30;73.53;;;35.92;;
75628;SDS011;64213;46.452;16.994;2022-11-25T17:16:33;66.07;;;34.78;;
75628;SDS011;64213;46.452;16.994;2022-11-25T17:19:36;58.97;;;31.23;;
75628;SDS011;64213;46.452;16.994;2022-11-25T17:22:40;58.53;;;30.15;;
75628;SDS011;64213;46.452;16.994;2022-11-25T17:25:44;63.58;;;31.52;;
75628;SDS011;64213;46.452;16.994;2022-11-25T17:28:54;59.42;;;30.48;;
75628;SDS011;64213;46.452;16.994;2022-11-25T17:31:58;54.15;;;28.33;;
75628;SDS011;64213;46.452;16.994;2022-11-25T17:35:01;62.00;;;28.43;;
75628;SDS011;64213;46.452;16.994;2022-11-25T17:38:15;59.00;;;29.30;;
75628;SDS011;64213;46.452;16.994;2022-11-25T17:41:19;54.25;;;28.87;;
75628;SDS011;64213;46.452;16.994;2022-11-25T17:44:25;60.42;;;28.83;;
75628;SDS011;64213;46.452;16.994;2022-11-25T17:47:29;52.15;;;25.73;;
75628;SDS011;64213;46.452;16.994;2022-11-25T17:50:32;61.10;;;27.67;;
75628;SDS011;64213;46.452;16.994;2022-11-25T17:53:37;58.10;;;28.27;;
75628;SDS011;64213;46.452;16.994;2022-11-25T17:56:41;69.00;;;32.45;;
75628;SDS011;64213;46.452;16.994;2022-11-25T17:59:53;69.35;;;31.80;;
75628;SDS011;64213;46.452;16.994;2022-11-25T18:02:55;59.47;;;29.92;;
75628;SDS011;64213;46.452;16.994;2022-11-25T18:05:58;53.03;;;27.07;;
75628;SDS011;64213;46.452;16.994;2022-11-25T18:09:00;60.08;;;28.33;;
75628;SDS011;64213;46.452;16.994;2022-11-25T18:12:05;48.17;;;22.10;;
75628;SDS011;64213;46.452;16.994;2022-11-25T18:15:18;50.22;;;25.85;;
75628;SDS011;64213;46.452;16.994;2022-11-25T18:18:28;59.60;;;27.08;;
75628;SDS011;64213;46.452;16.994;2022-11-25T18:21:31;53.80;;;26.40;;
75628;SDS011;64213;46.452;16.994;2022-11-25T18:24:34;88.97;;;39.50;;
75628;SDS011;64213;46.452;16.994;2022-11-25T18:27:38;55.33;;;28.65;;
75628;SDS011;64213;46.452;16.994;2022-11-25T18:30:41;49.97;;;24.55;;
75628;SDS011;64213;46.452;16.994;2022-11-25T18:33:44;46.50;;;21.27;;
75628;SDS011;64213;46.452;16.994;2022-11-25T18:36:47;45.30;;;21.90;;
75628;SDS011;64213;46.452;16.994;2022-11-25T18:39:51;48.45;;;24.40;;
75628;SDS011;64213;46.452;16.994;2022-11-25T18:42:54;57.85;;;30.55;;
75628;SDS011;64213;46.452;16.994;2022-11-25T18:45:59;79.87;;;41.40;;
75628;SDS011;64213;46.452;16.994;2022-11-25T18:49:09;77.70;;;39.30;;
75628;SDS011;64213;46.452;16.994;2022-11-25T18:52:13;71.93;;;36.67;;
75628;SDS011;64213;46.452;16.994;2022-11-25T18:55:17;77.25;;;39.72;;
75628;SDS011;64213;46.452;16.994;2022-11-25T18:58:23;88.57;;;47.33;;
75628;SDS011;64213;46.452;16.994;2022-11-25T19:01:30;80.12;;;40.22;;
75628;SDS011;64213;46.452;16.994;2022-11-25T19:04:34;71.30;;;37.05;;
75628;SDS011;64213;46.452;16.994;2022-11-25T19:07:37;72.17;;;36.60;;
75628;SDS011;64213;46.452;16.994;2022-11-25T19:10:41;78.75;;;35.30;;
75628;SDS011;64213;46.452;16.994;2022-11-25T19:13:45;85.53;;;39.17;;
75628;SDS011;64213;46.452;16.994;2022-11-25T19:16:51;73.10;;;34.42;;
75628;SDS011;64213;46.452;16.994;2022-11-25T19:19:55;83.93;;;38.03;;
75628;SDS011;64213;46.452;16.994;2022-11-25T19:22:58;136.70;;;58.77;;
75628;SDS011;64213;46.452;16.994;2022-11-25T19:26:16;118.70;;;52.80;;
75628;SDS011;64213;46.452;16.994;2022-11-25T19:29:36;76.47;;;37.80;;
75628;SDS011;64213;46.452;16.994;2022-11-25T19:32:45;61.63;;;30.23;;
75628;SDS011;64213;46.452;16.994;2022-11-25T19:35:49;72.93;;;37.80;;
75628;SDS011;64213;46.452;16.994;2022-11-25T19:38:53;97.47;;;50.10;;
75628;SDS011;64213;46.452;16.994;2022-11-25T19:41:56;85.80;;;45.50;;
75628;SDS011;64213;46.452;16.994;2022-11-25T19:44:59;75.45;;;38.35;;
75628;SDS011;64213;46.452;16.994;2022-11-25T19:48:02;99.10;;;51.78;;
75628;SDS011;64213;46.452;16.994;2022-11-25T19:51:08;81.68;;;43.03;;